Time;durP1;ratioP1;P1;durP2;ratioP2;P2;SDS_P1;SDS_P2;PMS_P1;PMS_P2;Temp;Humidity;BMP_temperature;BMP_pressure;BME280_temperature;BME280_humidity;BME280_pressure;Samples;Min_cycle;Max_cycle;Signal;HPM_P1;HPM_P2
2021/07/20 00:00:49;;;;;;;11.05;10.13;;;16.40;58.20;;;;;;5105212;28;20545;-55
2021/07/20 00:03:16;;;;;;;10.15;9.10;;;16.50;60.90;;;;;;5105412;28;20024;-48
2021/07/20 00:05:44;;;;;;;10.93;9.85;;;16.90;59.80;;;;;;5105859;28;20034;-50
2021/07/20 00:08:12;;;;;;;9.95;9.00;;;17.20;61.00;;;;;;5105160;28;20431;-49
2021/07/20 00:10:48;;;;;;;8.25;7.45;;;17.40;59.50;;;;;;5086722;28;20371;-52
2021/07/20 00:13:17;;;;;;;9.55;8.65;;;17.50;59.30;;;;;;5105396;28;20042;-52
2021/07/20 00:15:45;;;;;;;9.15;8.35;;;17.50;57.80;;;;;;5104801;28;20027;-56
2021/07/20 00:18:21;;;;;;;9.68;8.35;;;17.70;58.30;;;;;;5086619;28;20023;-56
2021/07/20 00:20:48;;;;;;;9.63;6.00;;;17.80;57.00;;;;;;5098962;27;20023;-52
2021/07/20 00:23:17;;;;;;;9.05;8.15;;;17.90;59.00;;;;;;5070030;28;20030;-56
2021/07/20 00:25:47;;;;;;;6.82;6.13;;;18.00;59.50;;;;;;5095866;28;20023;-51
2021/07/20 00:28:18;;;;;;;5.50;4.90;;;18.20;58.60;;;;;;5092575;28;20040;-56
2021/07/20 00:30:46;;;;;;;6.45;5.93;;;18.20;56.80;;;;;;5066275;28;20142;-53
2021/07/20 00:33:14;;;;;;;6.15;5.55;;;18.20;58.10;;;;;;5084357;28;20115;-54
2021/07/20 00:35:43;;;;;;;5.82;5.25;;;18.30;57.60;;;;;;5071722;28;20534;-57
2021/07/20 00:38:11;;;;;;;6.13;5.55;;;18.40;58.40;;;;;;5091228;28;20031;-50
2021/07/20 00:40:39;;;;;;;6.90;5.35;;;18.40;58.10;;;;;;5091307;28;20024;-55
2021/07/20 00:43:07;;;;;;;4.25;3.95;;;18.40;58.10;;;;;;5091455;28;20035;-53
2021/07/20 00:45:35;;;;;;;3.85;3.55;;;18.50;56.40;;;;;;5091091;28;20755;-51
2021/07/20 00:48:04;;;;;;;4.05;3.65;;;18.50;56.50;;;;;;5091182;28;20024;-55
2021/07/20 00:50:36;;;;;;;5.93;3.25;;;18.60;56.80;;;;;;5091040;28;20024;-50
2021/07/20 00:53:05;;;;;;;3.58;3.08;;;18.50;57.20;;;;;;5091286;28;20032;-54
2021/07/20 00:55:35;;;;;;;3.63;3.33;;;18.60;57.70;;;;;;5091161;28;20398;-53
2021/07/20 00:58:05;;;;;;;4.03;3.63;;;18.70;57.90;;;;;;5091144;28;20028;-51
2021/07/20 01:00:33;;;;;;;3.70;3.40;;;18.70;56.50;;;;;;5090661;28;20028;-57
2021/07/20 01:03:00;;;;;;;3.47;3.17;;;18.70;58.20;;;;;;5091479;28;20020;-54
2021/07/20 01:05:29;;;;;;;3.40;3.10;;;18.80;57.80;;;;;;5073046;28;20523;-51
2021/07/20 01:07:56;;;;;;;3.22;2.90;;;18.80;56.20;;;;;;5091109;28;20024;-52
2021/07/20 01:10:25;;;;;;;4.13;3.10;;;18.80;57.70;;;;;;5090847;28;20036;-54
2021/07/20 01:12:52;;;;;;;3.88;2.85;;;18.90;57.30;;;;;;5090991;28;20036;-54
2021/07/20 01:15:23;;;;;;;4.03;2.10;;;18.90;57.00;;;;;;5090310;28;20036;-53
2021/07/20 01:17:54;;;;;;;3.33;2.83;;;19.00;54.10;;;;;;5091445;28;20363;-58
2021/07/20 01:20:24;;;;;;;2.53;2.25;;;19.00;56.50;;;;;;5085735;27;20036;-57
2021/07/20 01:23:11;;;;;;;2.70;2.50;;;19.00;55.40;;;;;;5091776;28;20024;-53
2021/07/20 01:25:39;;;;;;;3.08;2.40;;;19.10;55.70;;;;;;5100028;28;20043;-59
2021/07/20 01:28:10;;;;;;;3.20;2.58;;;19.20;56.40;;;;;;5110431;27;20509;-54
2021/07/20 01:30:43;;;;;;;2.72;2.10;;;19.20;57.00;;;;;;5110104;27;20039;-56
2021/07/20 01:33:14;;;;;;;2.10;1.77;;;19.30;55.90;;;;;;5111075;28;20035;-54
2021/07/20 01:35:48;;;;;;;3.70;2.15;;;19.40;54.80;;;;;;5111083;28;20028;-53
2021/07/20 01:38:16;;;;;;;3.55;2.10;;;19.60;55.10;;;;;;5110183;28;20702;-56
2021/07/20 01:40:44;;;;;;;2.30;1.88;;;19.70;54.70;;;;;;5111004;27;20184;-53
2021/07/20 01:43:13;;;;;;;5.82;2.33;;;19.70;55.50;;;;;;5110883;27;20450;-53
2021/07/20 01:45:41;;;;;;;2.38;2.17;;;19.70;54.10;;;;;;5110628;27;20032;-58
2021/07/20 01:48:11;;;;;;;3.28;1.50;;;19.60;54.70;;;;;;5107741;28;20034;-53
2021/07/20 01:50:39;;;;;;;2.38;1.73;;;19.60;54.30;;;;;;5089723;28;20115;-50
2021/07/20 01:53:07;;;;;;;1.75;1.65;;;19.60;55.20;;;;;;5106937;28;20031;-57
2021/07/20 01:55:35;;;;;;;2.13;1.75;;;19.50;55.40;;;;;;5107999;28;20028;-56
2021/07/20 01:58:03;;;;;;;1.50;1.40;;;19.40;55.70;;;;;;5107113;28;20028;-52
2021/07/20 02:00:31;;;;;;;2.22;1.80;;;19.30;56.10;;;;;;5072353;28;20478;-56
2021/07/20 02:08:35;;;;;;;1.73;1.40;;;19.10;54.60;;;;;;5107753;28;20034;-57
2021/07/20 02:11:10;;;;;;;1.25;1.15;;;18.80;55.70;;;;;;5107057;28;20362;-53
2021/07/20 02:13:44;;;;;;;2.38;1.52;;;18.70;57.10;;;;;;5106490;28;20059;-54
2021/07/20 02:16:15;;;;;;;1.42;1.33;;;18.50;57.20;;;;;;5106797;28;20044;-55
2021/07/20 02:18:45;;;;;;;1.50;1.40;;;18.40;58.70;;;;;;5107245;28;20054;-56
2021/07/20 02:21:14;;;;;;;2.70;1.40;;;18.30;57.80;;;;;;5106992;28;20024;-56
2021/07/20 02:23:42;;;;;;;2.20;1.40;;;18.30;59.20;;;;;;5106939;28;20049;-53
2021/07/20 02:26:12;;;;;;;2.13;1.02;;;18.20;59.80;;;;;;5107414;28;20515;-52
2021/07/20 02:28:41;;;;;;;2.13;1.33;;;18.10;58.80;;;;;;5106975;28;20072;-55
2021/07/20 02:31:12;;;;;;;1.85;1.27;;;18.10;60.20;;;;;;5106717;28;20036;-51
2021/07/20 02:33:42;;;;;;;1.92;1.30;;;17.90;60.10;;;;;;5107395;28;20063;-58
2021/07/20 02:36:10;;;;;;;3.65;1.23;;;17.80;60.60;;;;;;5088324;28;20121;-56
2021/07/20 02:38:42;;;;;;;5.22;2.38;;;17.70;60.00;;;;;;5107334;28;20085;-53
2021/07/20 02:41:10;;;;;;;;;;;17.70;60.20;;;;;;5107339;28;20047;-54
2021/07/20 02:43:39;;;;;;;1.52;1.05;;;17.70;61.20;;;;;;5106567;28;19907;-56
2021/07/20 02:46:09;;;;;;;1.17;1.08;;;17.60;61.40;;;;;;5106507;28;20188;-55
2021/07/20 02:48:38;;;;;;;2.55;1.13;;;17.50;62.80;;;;;;5106552;28;21494;-52
2021/07/20 02:51:09;;;;;;;1.17;0.90;;;17.40;60.70;;;;;;5107015;28;20031;-52
2021/07/20 02:53:39;;;;;;;1.38;0.95;;;17.40;60.00;;;;;;5106725;28;20428;-60
2021/07/20 02:56:12;;;;;;;1.27;0.90;;;17.40;61.30;;;;;;5106843;28;20031;-57
2021/07/20 02:58:42;;;;;;;4.93;1.10;;;17.30;59.60;;;;;;5105284;28;20027;-55
2021/07/20 03:01:10;;;;;;;2.47;1.10;;;17.20;63.00;;;;;;5105476;28;20032;-50
2021/07/20 03:03:38;;;;;;;3.20;1.13;;;17.20;60.40;;;;;;5106331;28;20381;-55
2021/07/20 03:06:09;;;;;;;1.08;0.98;;;17.20;61.00;;;;;;5106581;28;20023;-55
2021/07/20 03:08:38;;;;;;;1.00;0.90;;;17.10;61.70;;;;;;5106931;28;20028;-51
2021/07/20 03:11:09;;;;;;;2.72;0.90;;;17.00;63.20;;;;;;5104624;28;20198;-51
2021/07/20 03:13:41;;;;;;;1.87;1.47;;;17.00;62.20;;;;;;5107785;28;20027;-51
2021/07/20 03:16:10;;;;;;;0.68;0.65;;;17.00;63.20;;;;;;5111847;28;20642;-57
2021/07/20 03:18:42;;;;;;;3.70;1.00;;;17.00;64.40;;;;;;5111829;28;20039;-55
2021/07/20 03:21:14;;;;;;;0.93;0.70;;;16.90;65.10;;;;;;5111752;28;20451;-55
2021/07/20 03:23:46;;;;;;;5.13;1.13;;;16.90;64.10;;;;;;5110944;28;20476;-60
2021/07/20 03:26:16;;;;;;;2.28;1.27;;;16.80;63.60;;;;;;5092982;28;20028;-57
2021/07/20 03:28:45;;;;;;;0.98;0.85;;;16.80;63.90;;;;;;5110835;28;20096;-57
2021/07/20 03:31:13;;;;;;;4.18;1.30;;;16.70;64.40;;;;;;5096970;28;20051;-55
2021/07/20 03:33:42;;;;;;;9.85;4.80;;;16.60;64.90;;;;;;5094029;28;20429;-58
2021/07/20 03:36:10;;;;;;;38.30;19.90;;;16.60;65.30;;;;;;5087099;28;20053;-52
2021/07/20 03:38:39;;;;;;;82.63;36.53;;;16.60;65.10;;;;;;5100343;28;20028;-52
2021/07/20 03:41:07;;;;;;;100.35;48.90;;;16.60;65.40;;;;;;5097317;28;20032;-55
2021/07/20 03:43:36;;;;;;;92.70;47.28;;;16.60;65.40;;;;;;5102344;28;20031;-54
2021/07/20 03:46:04;;;;;;;80.38;43.33;;;16.60;65.90;;;;;;5096649;28;20024;-57
2021/07/20 03:48:32;;;;;;;70.07;37.42;;;16.50;66.10;;;;;;5097526;28;20023;-59
2021/07/20 03:51:01;;;;;;;60.00;33.72;;;16.50;65.50;;;;;;5100535;28;20035;-62
2021/07/20 03:53:29;;;;;;;59.28;32.33;;;16.50;65.80;;;;;;5100044;28;20039;-53
2021/07/20 03:56:00;;;;;;;62.05;31.58;;;16.50;66.00;;;;;;5095431;28;20127;-54
2021/07/20 03:58:29;;;;;;;63.38;32.13;;;16.50;66.00;;;;;;5095480;28;20028;-53
2021/07/20 04:01:00;;;;;;;58.25;30.60;;;16.50;66.10;;;;;;5103612;28;20084;-59
2021/07/20 04:03:30;;;;;;;64.65;31.10;;;16.40;66.30;;;;;;5102530;28;20031;-59
2021/07/20 04:06:01;;;;;;;51.85;28.23;;;16.50;66.20;;;;;;5099219;28;20348;-59
2021/07/20 04:08:29;;;;;;;55.13;26.90;;;16.40;66.30;;;;;;5100048;28;20110;-57
2021/07/20 04:10:58;;;;;;;53.05;28.33;;;16.40;66.00;;;;;;5095481;28;20058;-52
2021/07/20 04:13:27;;;;;;;49.92;26.38;;;16.40;66.40;;;;;;5100512;28;20040;-52
2021/07/20 04:15:59;;;;;;;45.83;25.17;;;16.40;65.80;;;;;;5093899;28;20028;-56
2021/07/20 04:18:28;;;;;;;51.28;25.35;;;16.40;66.10;;;;;;5101371;28;20028;-58
2021/07/20 04:20:57;;;;;;;48.83;26.80;;;16.40;66.50;;;;;;5097428;28;20042;-57
2021/07/20 04:23:30;;;;;;;46.15;25.15;;;16.40;66.70;;;;;;5089587;28;20024;-56
2021/07/20 04:26:01;;;;;;;46.88;25.35;;;16.30;66.80;;;;;;5089856;28;20028;-53
2021/07/20 04:28:29;;;;;;;46.33;25.23;;;16.30;66.30;;;;;;5089130;28;20128;-55
2021/07/20 04:30:59;;;;;;;41.58;22.10;;;16.30;66.70;;;;;;5088903;28;20081;-57
2021/07/20 04:33:31;;;;;;;43.35;22.98;;;16.20;66.60;;;;;;5088338;28;20109;-57
2021/07/20 04:36:00;;;;;;;42.13;22.63;;;16.20;66.90;;;;;;5088986;28;20027;-53
2021/07/20 04:38:31;;;;;;;37.72;21.73;;;16.20;67.00;;;;;;5089292;28;20032;-57
2021/07/20 04:41:00;;;;;;;41.15;21.17;;;16.20;66.90;;;;;;5089130;28;20031;-53
2021/07/20 04:43:28;;;;;;;38.78;22.60;;;16.20;67.00;;;;;;5089367;28;20082;-55
2021/07/20 04:45:56;;;;;;;34.55;20.17;;;16.10;67.60;;;;;;5089392;28;20024;-56
2021/07/20 04:48:24;;;;;;;36.17;20.50;;;16.10;67.10;;;;;;5088188;28;20080;-58
2021/07/20 04:50:55;;;;;;;33.10;19.23;;;16.10;67.40;;;;;;5089235;28;20105;-57
2021/07/20 04:53:23;;;;;;;38.60;20.02;;;16.00;66.60;;;;;;5088937;28;20036;-57
2021/07/20 04:55:52;;;;;;;33.22;18.23;;;16.00;67.20;;;;;;5089121;28;20115;-55
2021/07/20 04:58:20;;;;;;;30.73;18.55;;;16.00;67.00;;;;;;5089156;28;20111;-54
2021/07/20 05:00:55;;;;;;;37.15;18.50;;;15.90;67.10;;;;;;5088924;28;20020;-55
2021/07/20 05:03:24;;;;;;;35.92;18.90;;;16.00;67.50;;;;;;5089392;28;20028;-58
2021/07/20 05:05:54;;;;;;;27.17;16.30;;;15.90;67.60;;;;;;5088838;28;20032;-59
2021/07/20 05:08:22;;;;;;;32.47;18.48;;;15.90;67.50;;;;;;5089302;28;20484;-54
2021/07/20 05:10:52;;;;;;;29.65;15.85;;;15.90;67.60;;;;;;5084695;28;20482;-59
2021/07/20 05:13:21;;;;;;;33.15;18.48;;;15.90;67.50;;;;;;5102312;28;20044;-62
2021/07/20 05:15:57;;;;;;;32.53;17.05;;;15.90;67.70;;;;;;5097317;28;20028;-52
2021/07/20 05:18:25;;;;;;;27.70;16.67;;;15.90;67.80;;;;;;5096630;28;20046;-60
2021/07/20 05:20:57;;;;;;;28.05;15.52;;;15.90;67.70;;;;;;5091926;28;20051;-58
2021/07/20 05:23:26;;;;;;;23.83;14.15;;;15.90;67.60;;;;;;5103445;28;20020;-61
2021/07/20 05:25:56;;;;;;;26.58;14.27;;;15.90;67.60;;;;;;5102950;28;20032;-54
2021/07/20 05:28:27;;;;;;;27.33;14.65;;;15.90;67.50;;;;;;5102861;28;20109;-59
2021/07/20 05:30:59;;;;;;;25.38;14.40;;;15.90;67.50;;;;;;5108358;28;20032;-55
2021/07/20 05:33:27;;;;;;;22.67;12.55;;;15.90;67.80;;;;;;5109635;28;20044;-57
2021/07/20 05:35:59;;;;;;;22.13;12.90;;;15.90;67.70;;;;;;5102858;28;20027;-59
2021/07/20 05:38:28;;;;;;;21.58;12.45;;;15.90;67.80;;;;;;5104131;28;20023;-61
2021/07/20 05:40:58;;;;;;;20.50;11.60;;;15.90;67.90;;;;;;5101960;28;20031;-61
2021/07/20 05:43:28;;;;;;;19.77;12.13;;;16.00;68.90;;;;;;5097922;28;20045;-60
2021/07/20 05:46:00;;;;;;;21.58;13.00;;;16.10;67.70;;;;;;5101724;28;20055;-59
2021/07/20 05:48:28;;;;;;;23.23;13.10;;;16.00;67.50;;;;;;5101572;28;20030;-61
2021/07/20 05:51:00;;;;;;;20.58;11.30;;;15.90;67.10;;;;;;5101600;28;20453;-61
2021/07/20 05:53:31;;;;;;;23.08;12.82;;;16.00;66.80;;;;;;5103093;28;20084;-61
2021/07/20 05:56:03;;;;;;;20.35;13.38;;;16.00;66.90;;;;;;5099617;28;20401;-58
2021/07/20 05:58:31;;;;;;;21.83;14.45;;;16.00;66.80;;;;;;5106975;28;20038;-54
2021/07/20 06:01:04;;;;;;;21.75;14.55;;;16.00;66.70;;;;;;5105668;28;20493;-60
2021/07/20 06:03:33;;;;;;;23.52;14.27;;;16.00;66.50;;;;;;5100084;28;20031;-60
2021/07/20 06:06:02;;;;;;;19.48;13.90;;;16.00;66.60;;;;;;5094988;28;20290;-51
2021/07/20 06:08:30;;;;;;;20.00;13.30;;;16.00;66.80;;;;;;5098889;28;20042;-53
2021/07/20 06:11:00;;;;;;;23.08;14.15;;;16.00;66.80;;;;;;5105797;28;20072;-59
2021/07/20 06:13:32;;;;;;;15.63;12.30;;;16.00;66.60;;;;;;5079330;28;20059;-57
2021/07/20 06:16:00;;;;;;;18.63;13.82;;;16.00;66.60;;;;;;5097570;28;21672;-59
2021/07/20 06:18:28;;;;;;;19.88;14.02;;;16.00;66.30;;;;;;5103493;28;20039;-64
2021/07/20 06:21:02;;;;;;;24.48;17.20;;;16.00;65.90;;;;;;5080917;28;20028;-66
2021/07/20 06:23:36;;;;;;;27.10;19.00;;;16.00;66.60;;;;;;5100556;28;20040;-55
2021/07/20 06:26:04;;;;;;;24.17;20.38;;;15.90;66.00;;;;;;5085638;28;20035;-61
2021/07/20 06:28:31;;;;;;;23.13;19.75;;;15.90;66.50;;;;;;5099905;28;20048;-61
2021/07/20 06:30:59;;;;;;;23.90;18.15;;;15.90;66.40;;;;;;5098686;28;20027;-62
2021/07/20 06:33:32;;;;;;;21.25;16.20;;;15.90;66.70;;;;;;5085753;28;20047;-61
2021/07/20 06:36:01;;;;;;;21.95;17.30;;;15.90;66.50;;;;;;5099178;28;20472;-61
2021/07/20 06:38:29;;;;;;;22.90;17.85;;;15.90;66.20;;;;;;5098586;28;20036;-60
2021/07/20 06:40:57;;;;;;;26.40;20.98;;;15.90;66.30;;;;;;5099688;28;20122;-61
2021/07/20 06:43:26;;;;;;;23.67;21.23;;;15.90;66.30;;;;;;5102123;28;20172;-57
2021/07/20 06:45:54;;;;;;;29.65;22.42;;;15.90;66.80;;;;;;5080328;28;20028;-55
2021/07/20 06:48:23;;;;;;;24.65;18.80;;;15.90;66.40;;;;;;5084284;28;20023;-54
2021/07/20 06:50:54;;;;;;;22.65;17.15;;;16.00;66.60;;;;;;5079885;28;20114;-59
2021/07/20 06:53:23;;;;;;;17.83;15.50;;;15.90;66.20;;;;;;5101482;28;20070;-58
2021/07/20 06:55:54;;;;;;;17.20;14.43;;;16.00;65.70;;;;;;5103290;28;20024;-65
2021/07/20 06:58:24;;;;;;;20.60;14.32;;;16.00;66.30;;;;;;5097935;28;20032;-63
2021/07/20 07:00:55;;;;;;;20.13;15.38;;;16.00;66.10;;;;;;5098748;28;20028;-62
2021/07/20 07:04:00;;;;;;;18.52;15.55;;;16.00;66.40;;;;;;5103690;28;20478;-63
2021/07/20 07:06:29;;;;;;;16.15;12.10;;;15.90;65.70;;;;;;5055685;28;20397;-61
2021/07/20 07:08:58;;;;;;;12.50;9.85;;;16.00;65.80;;;;;;5099726;28;20055;-62
2021/07/20 07:11:28;;;;;;;11.65;10.27;;;16.00;65.70;;;;;;5099995;28;20074;-57
2021/07/20 07:13:56;;;;;;;14.32;11.23;;;16.00;65.80;;;;;;5108001;28;20028;-59
2021/07/20 07:16:24;;;;;;;14.50;10.90;;;16.00;66.20;;;;;;5103996;28;20051;-59
2021/07/20 07:18:52;;;;;;;14.27;9.93;;;15.90;65.70;;;;;;5107121;28;20034;-59
2021/07/20 07:21:21;;;;;;;15.30;10.23;;;15.90;65.40;;;;;;5106849;28;20051;-60
2021/07/20 07:23:51;;;;;;;15.20;10.82;;;16.00;66.50;;;;;;5106769;28;20023;-60
2021/07/20 07:26:20;;;;;;;10.95;8.68;;;16.00;66.80;;;;;;5104087;28;20024;-60
2021/07/20 07:28:51;;;;;;;10.63;8.15;;;16.00;66.80;;;;;;5107548;28;20057;-58
2021/07/20 07:31:19;;;;;;;9.18;7.13;;;16.00;66.80;;;;;;5102900;28;20444;-62
2021/07/20 07:33:48;;;;;;;8.73;6.47;;;16.00;66.60;;;;;;5103342;28;20046;-61
2021/07/20 07:36:17;;;;;;;7.13;6.28;;;16.00;66.60;;;;;;5096575;28;20106;-65
2021/07/20 07:38:47;;;;;;;7.95;5.88;;;16.00;66.70;;;;;;5079883;28;20020;-58
2021/07/20 07:41:16;;;;;;;8.05;6.45;;;16.00;66.70;;;;;;5099990;28;20023;-62
2021/07/20 07:43:44;;;;;;;6.90;5.40;;;16.00;66.80;;;;;;5097937;28;20032;-59
2021/07/20 07:46:13;;;;;;;7.35;4.88;;;16.00;66.60;;;;;;5095754;28;20039;-59
2021/07/20 07:48:42;;;;;;;12.70;5.97;;;16.00;66.70;;;;;;5107238;28;20382;-59
2021/07/20 07:51:10;;;;;;;8.80;5.30;;;16.00;66.50;;;;;;5106917;28;20027;-58
2021/07/20 07:53:40;;;;;;;5.63;5.07;;;16.00;66.10;;;;;;5107274;28;20027;-57
2021/07/20 07:56:08;;;;;;;6.93;5.05;;;16.00;66.50;;;;;;5103590;28;20058;-57
2021/07/20 07:58:39;;;;;;;7.93;4.38;;;16.00;66.70;;;;;;5107680;28;20024;-61
2021/07/20 08:01:08;;;;;;;6.25;4.60;;;16.00;66.70;;;;;;5107001;28;20038;-53
2021/07/20 08:03:40;;;;;;;4.97;4.47;;;15.90;66.60;;;;;;5106336;28;20032;-65
2021/07/20 08:06:09;;;;;;;5.60;3.78;;;16.00;66.70;;;;;;5103304;28;20036;-59
2021/07/20 08:08:39;;;;;;;5.05;3.65;;;16.00;66.50;;;;;;5101351;28;20046;-54
2021/07/20 08:11:12;;;;;;;5.38;3.78;;;16.00;66.60;;;;;;5078849;28;20032;-61
2021/07/20 08:13:40;;;;;;;3.80;3.38;;;16.00;66.50;;;;;;5095032;28;20079;-58
2021/07/20 08:16:08;;;;;;;4.28;3.17;;;16.00;66.60;;;;;;5093309;28;20035;-61
2021/07/20 08:18:36;;;;;;;4.80;3.70;;;15.90;66.50;;;;;;5101688;28;20032;-54
2021/07/20 08:21:07;;;;;;;4.13;3.30;;;15.90;66.30;;;;;;5100603;28;20039;-57
2021/07/20 08:23:38;;;;;;;4.38;3.10;;;15.90;66.50;;;;;;5102126;28;20036;-55
2021/07/20 08:26:18;;;;;;;4.70;3.00;;;15.90;66.50;;;;;;5095338;28;20814;-56
2021/07/20 08:29:08;;;;;;;4.50;2.90;;;15.90;66.60;;;;;;5101686;28;20101;-56
2021/07/20 08:31:50;;;;;;;4.28;2.95;;;15.90;66.60;;;;;;5098181;28;20035;-62
2021/07/20 08:34:20;;;;;;;4.65;2.92;;;15.90;66.40;;;;;;5099661;28;20405;-62
2021/07/20 08:36:48;;;;;;;3.72;2.95;;;15.90;66.20;;;;;;5101739;28;20023;-60
2021/07/20 08:39:16;;;;;;;4.78;2.90;;;15.90;66.30;;;;;;5103302;28;20567;-59
2021/07/20 08:41:58;;;;;;;3.45;2.88;;;15.90;66.40;;;;;;5103783;28;20432;-61
2021/07/20 08:44:35;;;;;;;4.90;3.33;;;15.90;66.30;;;;;;5093091;28;20043;-55
2021/07/20 08:47:23;;;;;;;3.03;2.67;;;15.90;66.80;;;;;;5085865;28;20379;-56
2021/07/20 08:50:06;;;;;;;3.58;2.47;;;15.80;66.60;;;;;;5104745;28;20038;-54
2021/07/20 08:52:37;;;;;;;3.53;2.08;;;15.80;66.40;;;;;;5105006;28;20033;-58
2021/07/20 08:55:24;;;;;;;2.72;2.33;;;15.80;66.50;;;;;;5105555;28;20028;-58
2021/07/20 08:57:55;;;;;;;3.97;2.50;;;15.80;66.70;;;;;;5108538;28;20028;-60
2021/07/20 09:00:28;;;;;;;2.90;2.05;;;15.70;66.50;;;;;;5109030;28;20671;-58
2021/07/20 09:03:22;;;;;;;3.88;2.55;;;15.70;66.70;;;;;;5108664;28;20157;-57
2021/07/20 09:06:07;;;;;;;3.35;2.45;;;15.60;66.50;;;;;;5108997;28;20024;-58
2021/07/20 09:08:53;;;;;;;3.78;2.40;;;15.70;66.90;;;;;;5108592;28;20459;-57
2021/07/20 09:11:47;;;;;;;2.85;2.25;;;15.60;67.00;;;;;;5108837;28;20027;-58
2021/07/20 09:14:37;;;;;;;2.60;2.05;;;15.60;66.60;;;;;;5107929;28;20047;-58
2021/07/20 09:17:18;;;;;;;2.33;1.63;;;15.60;67.70;;;;;;5108371;28;20024;-58
2021/07/20 09:20:07;;;;;;;3.42;2.15;;;15.60;66.70;;;;;;5108637;28;20115;-57
2021/07/20 09:22:59;;;;;;;2.75;1.90;;;15.60;66.80;;;;;;5108679;28;20030;-59
2021/07/20 09:25:34;;;;;;;1.58;1.38;;;15.60;67.30;;;;;;5108782;28;20031;-59
2021/07/20 09:28:12;;;;;;;2.50;2.00;;;15.50;67.20;;;;;;5107789;28;20536;-56
2021/07/20 09:30:47;;;;;;;3.10;1.92;;;15.50;67.30;;;;;;5108571;28;20032;-56
2021/07/20 09:33:32;;;;;;;3.45;2.25;;;15.50;67.40;;;;;;5107876;28;20055;-57
2021/07/20 09:36:32;;;;;;;3.03;1.63;;;15.50;67.60;;;;;;5108515;28;20031;-55
2021/07/20 09:39:17;;;;;;;2.10;1.90;;;15.50;67.60;;;;;;5101988;28;20406;-59
2021/07/20 09:42:00;;;;;;;6.03;2.08;;;15.50;67.40;;;;;;5108447;28;20099;-56
2021/07/20 09:45:11;;;;;;;2.38;1.40;;;15.50;67.50;;;;;;5108062;28;20046;-58
2021/07/20 09:48:24;;;;;;;2.67;1.65;;;15.40;67.70;;;;;;5108074;28;20024;-57
2021/07/20 09:51:21;;;;;;;2.65;1.80;;;15.40;67.70;;;;;;5089813;28;20430;-58
2021/07/20 09:54:30;;;;;;;1.77;1.27;;;15.40;67.80;;;;;;5108509;28;20043;-59
2021/07/20 09:57:30;;;;;;;1.55;1.30;;;15.40;67.90;;;;;;5004903;28;20061;-59
2021/07/20 10:00:21;;;;;;;1.83;1.40;;;15.40;67.70;;;;;;5105779;28;20152;-56
2021/07/20 10:03:04;;;;;;;2.20;1.45;;;15.40;68.30;;;;;;5108533;28;20081;-56
2021/07/20 10:05:54;;;;;;;4.50;1.60;;;15.40;68.20;;;;;;5112332;28;20513;-57
2021/07/20 10:08:33;;;;;;;1.80;1.42;;;15.40;68.40;;;;;;5074828;28;20096;-50
2021/07/20 10:11:29;;;;;;;2.88;1.45;;;15.40;69.10;;;;;;5074464;28;20089;-62
2021/07/20 10:14:21;;;;;;;3.45;1.88;;;15.40;69.90;;;;;;5094037;28;20489;-59
2021/07/20 10:16:58;;;;;;;2.28;1.67;;;15.40;69.30;;;;;;5101339;28;20038;-58
2021/07/20 10:19:46;;;;;;;3.15;2.17;;;15.40;69.00;;;;;;5094478;28;20032;-59
2021/07/20 10:22:20;;;;;;;3.10;1.60;;;15.40;68.90;;;;;;5099407;28;20446;-60
2021/07/20 10:25:05;;;;;;;1.83;1.20;;;15.40;68.80;;;;;;5104798;28;20027;-59
2021/07/20 10:28:10;;;;;;;2.90;1.58;;;15.40;68.80;;;;;;5094771;28;20121;-60
2021/07/20 10:30:40;;;;;;;1.95;1.52;;;15.50;68.80;;;;;;5003563;28;20034;-62
2021/07/20 10:33:23;;;;;;;2.53;1.38;;;15.50;68.80;;;;;;5085818;28;20555;-56
2021/07/20 10:35:54;;;;;;;2.90;1.55;;;15.50;68.70;;;;;;5103120;28;20362;-57
2021/07/20 10:38:40;;;;;;;2.03;1.30;;;15.50;68.70;;;;;;5103543;28;20038;-59
2021/07/20 10:41:11;;;;;;;2.28;1.65;;;15.50;68.60;;;;;;5076113;28;20020;-57
2021/07/20 10:43:43;;;;;;;1.70;1.48;;;15.50;68.50;;;;;;5097494;28;20039;-55
2021/07/20 10:46:14;;;;;;;3.43;1.60;;;15.50;68.40;;;;;;5102171;28;20058;-58
2021/07/20 10:48:53;;;;;;;1.90;1.40;;;15.50;68.60;;;;;;5099139;28;20039;-62
2021/07/20 10:51:25;;;;;;;2.67;1.50;;;15.40;68.50;;;;;;5100151;28;20120;-58
2021/07/20 10:54:26;;;;;;;2.08;1.42;;;15.40;68.70;;;;;;5099313;28;20032;-57
2021/07/20 10:57:01;;;;;;;1.45;1.20;;;15.40;68.70;;;;;;5096853;28;20028;-61
2021/07/20 10:59:47;;;;;;;2.15;1.55;;;15.40;68.90;;;;;;5100324;28;20097;-59
2021/07/20 11:02:32;;;;;;;2.10;1.50;;;15.40;68.80;;;;;;5093556;28;20034;-62
2021/07/20 11:05:04;;;;;;;1.90;1.13;;;15.40;68.70;;;;;;5097316;28;20036;-59
2021/07/20 11:07:57;;;;;;;2.10;1.38;;;15.40;68.70;;;;;;5105748;28;20034;-59
2021/07/20 11:10:33;;;;;;;1.48;1.20;;;15.50;68.70;;;;;;5099244;28;20063;-61
2021/07/20 11:13:16;;;;;;;1.90;1.27;;;15.50;68.70;;;;;;5095017;28;20051;-58
2021/07/20 11:15:53;;;;;;;1.58;1.13;;;15.40;68.60;;;;;;5083772;28;20042;-54
2021/07/20 11:18:25;;;;;;;1.60;1.10;;;15.40;68.50;;;;;;5064378;28;20036;-62
2021/07/20 11:20:56;;;;;;;2.53;1.35;;;15.40;68.50;;;;;;5095659;28;20028;-64
2021/07/20 11:23:26;;;;;;;2.50;1.48;;;15.40;68.40;;;;;;5095585;28;20485;-60
2021/07/20 11:25:55;;;;;;;1.20;1.05;;;15.40;68.30;;;;;;5096924;28;20061;-55
2021/07/20 11:28:23;;;;;;;1.65;1.10;;;15.40;68.30;;;;;;5094275;28;20040;-61
2021/07/20 11:30:54;;;;;;;2.10;1.48;;;15.50;68.30;;;;;;5094401;28;20066;-60
2021/07/20 11:33:42;;;;;;;1.50;1.23;;;15.50;68.50;;;;;;5097892;28;20031;-64
2021/07/20 11:36:13;;;;;;;2.40;1.42;;;15.50;68.50;;;;;;5096444;28;20024;-60
2021/07/20 11:38:43;;;;;;;1.38;1.25;;;15.50;68.60;;;;;;5099767;28;20096;-55
2021/07/20 11:41:17;;;;;;;2.00;1.20;;;15.50;68.50;;;;;;5099296;28;20501;-60
2021/07/20 11:44:25;;;;;;;2.65;1.35;;;15.50;68.60;;;;;;5096663;28;20070;-56
2021/07/20 11:47:05;;;;;;;4.90;1.67;;;15.40;68.50;;;;;;5031946;28;20036;-56
2021/07/20 11:49:54;;;;;;;1.33;1.10;;;15.40;68.40;;;;;;5099056;28;20098;-57
2021/07/20 11:52:42;;;;;;;1.00;0.90;;;15.40;68.50;;;;;;5097714;28;20084;-59
2021/07/20 11:55:13;;;;;;;1.20;1.10;;;15.40;68.30;;;;;;5096903;28;20490;-62
2021/07/20 11:58:02;;;;;;;1.70;0.88;;;15.40;68.40;;;;;;5103142;28;20671;-60
2021/07/20 12:00:47;;;;;;;1.50;1.17;;;15.40;68.50;;;;;;5096192;28;20062;-61
2021/07/20 12:03:31;;;;;;;1.48;1.05;;;15.40;68.50;;;;;;5097677;28;20173;-61
2021/07/20 12:06:19;;;;;;;2.25;1.20;;;15.40;68.50;;;;;;5097600;28;20032;-57
2021/07/20 12:09:10;;;;;;;2.72;1.15;;;15.40;68.50;;;;;;5098148;28;20078;-60
2021/07/20 12:11:41;;;;;;;1.08;0.88;;;15.40;68.50;;;;;;5095054;28;20028;-61
2021/07/20 12:14:10;;;;;;;2.17;1.13;;;15.40;68.60;;;;;;5093722;28;20493;-55
2021/07/20 12:16:46;;;;;;;6.10;1.45;;;15.40;68.60;;;;;;5101857;28;20143;-60
2021/07/20 12:19:24;;;;;;;1.10;0.85;;;15.40;68.60;;;;;;5100893;28;20512;-61
2021/07/20 12:21:51;;;;;;;4.70;1.38;;;15.40;68.60;;;;;;5080934;28;20053;-58
2021/07/20 12:24:22;;;;;;;2.90;1.02;;;15.30;68.40;;;;;;5106609;28;20040;-61
2021/07/20 12:26:51;;;;;;;0.98;0.80;;;15.30;68.80;;;;;;5106001;28;20486;-59
2021/07/20 12:29:19;;;;;;;1.13;0.90;;;15.30;68.90;;;;;;5099734;28;20087;-64
2021/07/20 12:31:49;;;;;;;5.05;1.10;;;15.30;69.00;;;;;;5077142;28;20027;-60
2021/07/20 12:34:18;;;;;;;2.75;1.23;;;15.30;69.00;;;;;;5098790;28;20109;-58
2021/07/20 12:36:46;;;;;;;1.45;1.00;;;15.30;69.00;;;;;;5081173;28;20050;-59
2021/07/20 12:39:19;;;;;;;1.50;1.00;;;15.20;68.90;;;;;;5097653;28;20034;-58
2021/07/20 12:41:51;;;;;;;1.40;1.08;;;15.20;69.00;;;;;;5100108;28;20035;-55
2021/07/20 12:44:20;;;;;;;0.93;0.82;;;15.20;69.10;;;;;;5096586;28;20492;-62
2021/07/20 12:46:49;;;;;;;1.23;0.88;;;15.20;69.10;;;;;;5096095;28;20478;-56
2021/07/20 12:49:17;;;;;;;2.05;1.00;;;15.20;69.10;;;;;;5099696;28;20494;-53
2021/07/20 12:51:53;;;;;;;1.50;0.85;;;15.10;69.00;;;;;;5100970;28;20058;-59
2021/07/20 12:54:39;;;;;;;0.93;0.85;;;15.20;69.10;;;;;;5104427;28;20039;-58
2021/07/20 12:57:07;;;;;;;1.85;1.10;;;15.10;69.00;;;;;;5103884;28;20028;-61
2021/07/20 12:59:43;;;;;;;1.27;0.90;;;15.10;68.90;;;;;;5096385;28;20027;-65
2021/07/20 13:02:15;;;;;;;1.40;0.98;;;15.10;69.00;;;;;;5092012;28;20490;-59
2021/07/20 13:04:49;;;;;;;1.43;1.00;;;15.10;69.00;;;;;;5093762;28;20028;-59
2021/07/20 13:07:21;;;;;;;2.17;1.17;;;15.10;69.00;;;;;;5078513;28;20105;-56
2021/07/20 13:09:49;;;;;;;1.10;0.98;;;15.10;69.00;;;;;;5096762;28;20525;-64
2021/07/20 13:12:18;;;;;;;1.00;0.80;;;15.10;68.90;;;;;;5074795;28;20039;-60
2021/07/20 13:14:49;;;;;;;1.63;1.00;;;15.10;68.90;;;;;;5100962;28;20034;-60
2021/07/20 13:17:22;;;;;;;1.15;0.93;;;15.10;68.90;;;;;;5097675;28;20030;-62